Observations for CRANFIELD, United Kingdom (EGTC)

EGTC 211650Z 15005KT 130V190 9999 BKN018 19/17 Q1020
EGTC 211620Z 14006KT 100V170 9999 SCT014 BKN022 19/17 Q1020 
EGTC 211550Z 16006KT 130V210 9999 SCT015 BKN022 18/16 Q1021 
EGTC 211520Z 16006KT 9999 SCT013 BKN021 19/17 Q1021 
EGTC 211450Z 13006KT 110V180 9999 BKN013 18/16 Q1021
EGTC 211420Z 13008KT 110V180 9999 SCT012 BKN020 18/16 Q1021 
EGTC 211350Z 16009KT 9999 BKN012 17/15 Q1021
EGTC 211320Z 13007KT 9999 BKN011 17/16 Q1021
EGTC 211250Z 15008KT 9999 BKN011 17/16 Q1021
EGTC 211220Z 15007KT 130V190 9999 BKN011 18/16 Q1021
EGTC 211150Z 15007KT 9999 SCT008 BKN018 18/16 Q1021 
EGTC 211120Z 12005KT 9999 SCT008 BKN010 17/16 Q1022 
EGTC 211050Z 13005KT 100V170 9999 SCT008 BKN012 17/16 Q1022 
EGTC 211020Z 15005KT 100V170 9999 SCT008 BKN013 16/16 Q1021 
EGTC 210950Z 12004KT 090V160 9999 -DZ BKN007 16/15 Q1021
EGTC 210920Z 12006KT 9999 -DZ BKN005 15/15 Q1021
EGTC 210850Z 12005KT 5000 -DZ BR BKN004 15/15 Q1021 
EGTC 210820Z 12006KT 2500 -DZ BR OVC003 15/15 Q1021 
EGTC 210750Z 11006KT 2500 BR OVC003 14/14 Q1021 
EGTC 210720Z 11005KT 2500 BR OVC003 14/14 Q1021 
EGTC 210650Z 12006KT 3000 BR OVC004 14/14 Q1021 
EGTC 210620Z 12006KT 4000 BR OVC004 14/14 Q1021